createdAt,value
2017-10-29T00:00:27.267Z,78.58
2017-10-29T00:02:53.015Z,78.67
2017-10-29T00:05:18.777Z,78.55
2017-10-29T00:07:44.503Z,78.97
2017-10-29T00:10:10.294Z,78.88
2017-10-29T00:12:36.054Z,78.70
2017-10-29T00:15:01.809Z,78.92
2017-10-29T00:17:27.580Z,78.94
2017-10-29T00:19:53.340Z,78.93
2017-10-29T00:22:19.071Z,79.10
2017-10-29T00:24:44.846Z,79.24
2017-10-29T00:27:10.597Z,79.87
2017-10-29T00:29:36.379Z,80.23
2017-10-29T00:32:02.146Z,80.14
2017-10-29T00:34:27.930Z,80.12
2017-10-29T00:36:53.728Z,80.27
2017-10-29T00:39:19.478Z,80.06
2017-10-29T00:41:45.250Z,80.06
2017-10-29T00:44:11.035Z,79.87
2017-10-29T00:46:36.815Z,80.09
2017-10-29T00:49:02.579Z,80.09
2017-10-29T00:51:28.339Z,80.03
2017-10-29T00:53:54.119Z,80.19
2017-10-29T00:56:19.875Z,80.13
2017-10-29T00:58:45.664Z,79.99
2017-10-29T01:01:11.424Z,79.85
2017-10-29T01:03:37.207Z,79.60
2017-10-29T01:06:02.971Z,79.33
2017-10-29T01:08:29.484Z,78.99
2017-10-29T01:10:55.273Z,78.77
2017-10-29T01:13:21.019Z,78.58
2017-10-29T01:15:46.774Z,78.70
2017-10-29T01:18:12.543Z,78.92
2017-10-29T01:20:38.307Z,78.78
2017-10-29T01:23:04.058Z,79.07
2017-10-29T01:25:29.840Z,79.33
2017-10-29T01:27:55.612Z,79.33
2017-10-29T01:30:21.738Z,79.32
2017-10-29T01:32:47.487Z,79.16
2017-10-29T01:35:13.243Z,79.29
2017-10-29T01:37:39.012Z,79.61
2017-10-29T01:40:04.762Z,79.86
2017-10-29T01:42:30.561Z,80.12
2017-10-29T01:44:56.301Z,80.47
2017-10-29T01:47:22.044Z,80.68
2017-10-29T01:49:47.815Z,80.78
2017-10-29T01:52:13.592Z,80.94
2017-10-29T01:54:39.390Z,81.30
2017-10-29T01:57:05.155Z,81.34
2017-10-29T01:59:30.908Z,82.05
2017-10-29T02:01:56.676Z,82.57
2017-10-29T02:04:22.444Z,82.47
2017-10-29T02:06:48.200Z,82.56
2017-10-29T02:09:13.955Z,82.68
2017-10-29T02:11:39.719Z,82.59
2017-10-29T02:14:05.467Z,82.68
2017-10-29T02:16:31.236Z,82.90
2017-10-29T02:18:56.979Z,82.97
2017-10-29T02:21:22.740Z,83.44
2017-10-29T02:23:48.511Z,84.12
2017-10-29T02:26:14.319Z,83.94
2017-10-29T02:28:40.067Z,83.87
2017-10-29T02:31:05.831Z,83.71
2017-10-29T02:33:31.604Z,83.44
2017-10-29T02:35:57.364Z,83.67
2017-10-29T02:38:23.116Z,83.55
2017-10-29T02:40:48.900Z,83.57
2017-10-29T02:43:14.678Z,83.78
2017-10-29T02:45:40.446Z,83.70
2017-10-29T02:48:06.227Z,83.80
2017-10-29T02:50:32.431Z,83.45
2017-10-29T02:52:58.223Z,83.47
2017-10-29T02:55:23.984Z,83.35
2017-10-29T02:57:49.743Z,83.59
2017-10-29T03:00:15.523Z,83.55
2017-10-29T03:02:41.276Z,83.66
2017-10-29T03:05:07.059Z,83.95
2017-10-29T03:07:32.839Z,84.51
2017-10-29T03:09:58.579Z,85.01
2017-10-29T03:12:24.330Z,85.14
2017-10-29T03:14:50.100Z,85.23
2017-10-29T03:17:15.858Z,84.67
2017-10-29T03:19:41.606Z,85.22
2017-10-29T03:22:07.385Z,85.12
2017-10-29T03:24:33.144Z,85.27
2017-10-29T03:26:58.909Z,85.19
2017-10-29T03:29:24.698Z,85.09
2017-10-29T03:31:50.457Z,85.04
2017-10-29T03:34:16.235Z,84.56
2017-10-29T03:36:42.043Z,84.83
2017-10-29T03:39:07.836Z,85.09
2017-10-29T03:41:33.615Z,85.22
2017-10-29T03:43:59.363Z,85.24
2017-10-29T03:46:25.122Z,85.99
2017-10-29T03:48:50.863Z,85.58
2017-10-29T03:51:16.635Z,85.29
2017-10-29T03:53:42.420Z,85.09
2017-10-29T03:56:08.183Z,85.13
2017-10-29T03:58:33.915Z,85.61
2017-10-29T04:00:59.680Z,85.91
2017-10-29T04:03:25.451Z,85.80
2017-10-29T04:05:51.240Z,86.15
2017-10-29T04:08:16.986Z,87.24
2017-10-29T04:10:42.755Z,86.23
2017-10-29T04:13:08.511Z,86.80
2017-10-29T04:15:34.284Z,87.02
2017-10-29T04:18:00.042Z,87.57
2017-10-29T04:20:25.792Z,87.30
2017-10-29T04:22:52.874Z,87.80
2017-10-29T04:25:18.623Z,89.01
2017-10-29T04:27:44.386Z,88.93
2017-10-29T04:30:10.163Z,89.09
2017-10-29T04:32:35.939Z,88.97
2017-10-29T04:35:01.685Z,88.58
2017-10-29T04:37:27.516Z,88.35
2017-10-29T04:39:53.275Z,88.22
2017-10-29T04:42:19.050Z,88.15
2017-10-29T04:44:44.821Z,87.64
2017-10-29T04:47:10.575Z,87.59
2017-10-29T04:49:36.349Z,87.78
2017-10-29T04:52:02.136Z,87.56
2017-10-29T04:54:27.896Z,87.75
2017-10-29T04:56:53.658Z,87.70
2017-10-29T04:59:19.440Z,88.13
2017-10-29T05:01:45.201Z,88.02
2017-10-29T05:04:10.972Z,87.89
2017-10-29T05:06:36.725Z,87.82
2017-10-29T05:09:02.499Z,88.54
2017-10-29T05:11:28.272Z,88.77
2017-10-29T05:13:54.056Z,88.81
2017-10-29T05:16:19.807Z,88.92
2017-10-29T05:18:45.576Z,88.61
2017-10-29T05:21:11.335Z,88.78
2017-10-29T05:23:37.109Z,87.98
2017-10-29T05:26:02.884Z,87.80
2017-10-29T05:28:28.635Z,87.41
2017-10-29T05:30:54.443Z,87.36
2017-10-29T05:33:20.200Z,87.04
2017-10-29T05:35:45.980Z,86.95
2017-10-29T05:38:11.735Z,86.99
2017-10-29T05:40:37.527Z,86.58
2017-10-29T05:43:03.310Z,86.52
2017-10-29T05:45:29.108Z,86.42
2017-10-29T05:47:54.900Z,86.43
2017-10-29T05:50:20.676Z,86.22
2017-10-29T05:52:46.460Z,85.87
2017-10-29T05:55:12.230Z,85.69
2017-10-29T05:57:38.008Z,85.22
2017-10-29T06:00:03.778Z,85.27
2017-10-29T06:02:29.567Z,84.84
2017-10-29T06:04:55.355Z,84.42
2017-10-29T06:07:21.103Z,84.25
2017-10-29T06:09:46.873Z,84.00
2017-10-29T06:12:12.639Z,84.10
2017-10-29T06:14:38.384Z,84.18
2017-10-29T06:17:04.175Z,84.17
2017-10-29T06:19:29.944Z,84.07
2017-10-29T06:21:55.707Z,83.86
2017-10-29T06:24:21.455Z,83.90
2017-10-29T06:26:47.204Z,83.98
2017-10-29T06:29:12.970Z,83.78
2017-10-29T06:31:38.783Z,83.54
2017-10-29T06:34:04.580Z,83.13
2017-10-29T06:36:30.390Z,82.98
2017-10-29T06:38:56.147Z,82.84
2017-10-29T06:41:21.919Z,82.84
2017-10-29T06:43:47.678Z,82.59
2017-10-29T06:46:13.482Z,82.58
2017-10-29T06:48:39.239Z,82.61
2017-10-29T06:51:04.987Z,82.61
2017-10-29T06:53:30.767Z,82.60
2017-10-29T06:55:56.563Z,82.62
2017-10-29T06:58:22.378Z,82.78
2017-10-29T07:00:48.242Z,82.59
2017-10-29T07:03:14.028Z,82.91
2017-10-29T07:05:39.798Z,83.00
2017-10-29T07:08:05.679Z,82.73
2017-10-29T07:10:31.541Z,82.90
2017-10-29T07:12:57.318Z,82.93
2017-10-29T07:15:23.171Z,82.69
2017-10-29T07:17:49.059Z,82.93
2017-10-29T07:20:14.923Z,82.96
2017-10-29T07:22:40.749Z,82.84
2017-10-29T07:25:06.575Z,83.23
2017-10-29T07:27:32.339Z,82.86
2017-10-29T07:29:58.236Z,82.77
2017-10-29T07:32:24.028Z,82.70
2017-10-29T07:34:49.860Z,83.44
2017-10-29T07:37:15.676Z,83.41
2017-10-29T07:39:41.511Z,83.13
2017-10-29T07:42:07.338Z,83.20
2017-10-29T07:44:33.157Z,82.96
2017-10-29T07:46:58.956Z,83.06
2017-10-29T07:49:24.723Z,82.64
2017-10-29T07:51:50.544Z,82.79
2017-10-29T07:54:16.284Z,82.48
2017-10-29T07:56:42.029Z,82.49
2017-10-29T07:59:07.958Z,82.41
2017-10-29T08:01:33.736Z,82.30
2017-10-29T08:03:59.575Z,81.87
2017-10-29T08:06:25.372Z,82.05
2017-10-29T08:08:51.216Z,82.00
2017-10-29T08:11:17.059Z,82.21
2017-10-29T08:13:42.844Z,81.71
2017-10-29T08:16:08.647Z,81.90
2017-10-29T08:18:34.540Z,81.74
2017-10-29T08:21:00.412Z,81.51
2017-10-29T08:23:26.288Z,81.45
2017-10-29T08:25:52.064Z,81.14
2017-10-29T08:28:17.812Z,81.00
2017-10-29T08:30:43.658Z,81.28
2017-10-29T08:33:09.442Z,81.13
2017-10-29T08:35:35.308Z,80.97
2017-10-29T08:38:01.116Z,80.35
2017-10-29T08:40:26.952Z,78.81
2017-10-29T08:42:52.709Z,78.37
2017-10-29T08:45:18.592Z,78.56
2017-10-29T08:47:44.395Z,79.45
2017-10-29T08:50:10.174Z,79.13
2017-10-29T08:52:35.998Z,79.94
2017-10-29T08:55:01.814Z,80.46
2017-10-29T08:57:27.578Z,79.64
2017-10-29T08:59:53.415Z,81.33
2017-10-29T09:02:19.297Z,81.73
2017-10-29T09:04:45.048Z,82.09
2017-10-29T09:07:10.811Z,83.33
2017-10-29T09:09:36.636Z,83.70
2017-10-29T09:12:02.466Z,83.44
2017-10-29T09:14:28.323Z,84.26
2017-10-29T09:16:54.077Z,83.95
2017-10-29T09:19:19.932Z,84.16
2017-10-29T09:21:45.694Z,85.02
2017-10-29T09:24:11.475Z,85.24
2017-10-29T09:26:37.323Z,85.76
2017-10-29T09:29:03.135Z,85.85
2017-10-29T09:31:28.952Z,86.05
2017-10-29T09:33:54.763Z,86.71
2017-10-29T09:36:20.623Z,86.35
2017-10-29T09:38:46.414Z,86.65
2017-10-29T09:41:12.263Z,87.03
2017-10-29T09:43:38.083Z,86.44
2017-10-29T09:46:03.933Z,86.61
2017-10-29T09:48:30.247Z,86.81
2017-10-29T09:50:56.484Z,87.04
2017-10-29T09:53:23.126Z,86.57
2017-10-29T09:55:49.363Z,86.52
2017-10-29T09:58:15.964Z,86.90
2017-10-29T10:00:42.756Z,86.77
2017-10-29T10:03:09.019Z,86.72
2017-10-29T10:05:35.636Z,87.04
2017-10-29T10:08:01.504Z,87.93
2017-10-29T10:10:27.692Z,89.22
2017-10-29T10:12:53.822Z,88.86
2017-10-29T10:15:20.367Z,87.36
2017-10-29T10:17:47.212Z,87.85
2017-10-29T10:20:13.447Z,88.68
2017-10-29T10:22:39.578Z,89.67
2017-10-29T10:25:05.711Z,89.53
2017-10-29T10:27:31.846Z,89.81
2017-10-29T10:29:58.080Z,90.03
2017-10-29T10:32:24.311Z,90.20
2017-10-29T10:34:50.138Z,90.85
2017-10-29T10:37:15.927Z,90.72
2017-10-29T10:39:41.719Z,90.61
2017-10-29T10:42:07.480Z,90.54
2017-10-29T10:44:33.226Z,90.29
2017-10-29T10:46:58.991Z,90.09
2017-10-29T10:49:24.746Z,89.66
2017-10-29T10:51:50.513Z,89.89
2017-10-29T10:54:16.311Z,89.70
2017-10-29T10:56:42.063Z,90.02
2017-10-29T10:59:07.859Z,89.71
2017-10-29T11:01:33.616Z,88.96
2017-10-29T11:03:59.387Z,88.78
2017-10-29T11:06:25.255Z,88.77
2017-10-29T11:08:51.016Z,88.72
2017-10-29T11:11:16.775Z,87.73
2017-10-29T11:13:42.530Z,86.55
2017-10-29T11:16:08.271Z,86.67
2017-10-29T11:18:34.043Z,85.76
2017-10-29T11:20:59.806Z,85.08
2017-10-29T11:23:25.559Z,86.50
2017-10-29T11:25:51.318Z,85.40
2017-10-29T11:28:17.084Z,85.64
2017-10-29T11:30:42.855Z,86.10
2017-10-29T11:33:08.607Z,85.32
2017-10-29T11:35:34.395Z,84.94
2017-10-29T11:38:00.187Z,84.89
2017-10-29T11:40:25.935Z,84.88
2017-10-29T11:42:51.704Z,85.63
2017-10-29T11:45:17.459Z,84.66
2017-10-29T11:47:43.272Z,86.48
2017-10-29T11:50:09.026Z,85.66
2017-10-29T11:52:34.804Z,86.37
2017-10-29T11:55:00.569Z,85.98
2017-10-29T11:57:26.327Z,85.75
2017-10-29T11:59:52.075Z,85.59
2017-10-29T12:02:17.846Z,85.82
2017-10-29T12:04:43.630Z,86.19
2017-10-29T12:07:09.371Z,85.10
2017-10-29T12:09:35.136Z,84.17
2017-10-29T12:12:00.936Z,83.64
2017-10-29T12:14:26.676Z,83.86
2017-10-29T12:16:52.443Z,82.87
2017-10-29T12:19:18.212Z,81.63
2017-10-29T12:21:43.947Z,82.05
2017-10-29T12:24:09.728Z,83.20
2017-10-29T12:26:35.468Z,81.50
2017-10-29T12:29:01.218Z,81.35
2017-10-29T12:31:27.016Z,81.92
2017-10-29T12:33:52.765Z,80.67
2017-10-29T12:36:18.510Z,81.47
2017-10-29T12:38:44.315Z,80.77
2017-10-29T12:41:10.103Z,83.23
2017-10-29T12:43:35.849Z,81.91
2017-10-29T12:46:01.623Z,81.17
2017-10-29T12:48:27.393Z,80.03
2017-10-29T12:50:53.144Z,81.33
2017-10-29T12:53:18.907Z,80.32
2017-10-29T12:55:44.684Z,81.06
2017-10-29T12:58:10.435Z,81.05
2017-10-29T13:00:36.187Z,79.52
2017-10-29T13:03:01.947Z,78.32
2017-10-29T13:05:27.711Z,77.78
2017-10-29T13:07:53.499Z,76.25
2017-10-29T13:10:19.247Z,75.32
2017-10-29T13:12:45.017Z,76.08
2017-10-29T13:15:10.792Z,73.92
2017-10-29T13:17:36.544Z,70.36
2017-10-29T13:20:02.320Z,66.09
2017-10-29T13:22:28.073Z,66.88
2017-10-29T13:24:53.836Z,65.46
2017-10-29T13:27:19.587Z,69.73
2017-10-29T13:29:45.358Z,69.01
2017-10-29T13:32:11.103Z,68.73
2017-10-29T13:37:57.790Z,65.49
2017-10-29T13:40:34.110Z,64.79
2017-10-29T13:43:00.831Z,64.02
2017-10-29T13:45:27.628Z,64.89
2017-10-29T13:48:20.666Z,62.27
2017-10-29T13:50:46.469Z,63.03
2017-10-29T13:53:12.255Z,61.57
2017-10-29T13:55:38.062Z,63.20
2017-10-29T13:58:03.847Z,63.56
2017-10-29T14:00:29.595Z,62.64
2017-10-29T14:02:55.356Z,61.89
2017-10-29T14:05:21.140Z,61.16
2017-10-29T14:07:46.906Z,63.39
2017-10-29T14:10:12.699Z,63.94
2017-10-29T14:12:38.461Z,60.97
2017-10-29T14:15:04.223Z,60.16
2017-10-29T14:17:30.004Z,62.36
2017-10-29T14:19:55.763Z,59.90
2017-10-29T14:22:21.526Z,60.57
2017-10-29T14:24:47.323Z,60.40
2017-10-29T14:27:13.076Z,59.91
2017-10-29T14:29:38.843Z,61.94
2017-10-29T14:32:04.968Z,61.76
2017-10-29T14:34:31.045Z,59.77
2017-10-29T14:36:56.819Z,58.87
2017-10-29T14:39:22.601Z,55.74
2017-10-29T14:41:48.403Z,55.14
2017-10-29T14:44:14.183Z,52.99
2017-10-29T14:46:39.971Z,52.36
2017-10-29T14:49:05.729Z,53.23
2017-10-29T14:51:31.510Z,55.46
2017-10-29T14:53:57.307Z,55.49
2017-10-29T14:56:23.081Z,55.45
2017-10-29T14:58:48.843Z,56.42
2017-10-29T15:01:14.615Z,56.04
2017-10-29T15:03:40.375Z,54.14
2017-10-29T15:06:06.157Z,50.39
2017-10-29T15:08:31.926Z,53.79
2017-10-29T15:10:57.707Z,49.43
2017-10-29T15:13:23.495Z,50.23
2017-10-29T15:15:49.267Z,48.35
2017-10-29T15:18:15.013Z,50.21
2017-10-29T15:20:40.808Z,49.03
2017-10-29T15:23:06.586Z,51.00
2017-10-29T15:25:32.335Z,51.16
2017-10-29T15:27:58.127Z,50.35
2017-10-29T15:30:23.892Z,51.97
2017-10-29T15:32:49.696Z,53.92
2017-10-29T15:35:15.448Z,54.27
2017-10-29T15:37:41.235Z,56.84
2017-10-29T15:40:07.012Z,56.66
2017-10-29T15:42:32.767Z,57.50
2017-10-29T15:44:58.553Z,59.19
2017-10-29T15:47:24.315Z,59.30
2017-10-29T15:49:50.088Z,58.19
2017-10-29T15:52:15.884Z,59.26
2017-10-29T15:54:41.643Z,60.78
2017-10-29T15:57:07.409Z,59.83
2017-10-29T15:59:33.197Z,58.82
2017-10-29T16:01:58.946Z,62.56
2017-10-29T16:04:24.775Z,59.69
2017-10-29T16:06:50.564Z,59.71
2017-10-29T16:09:16.355Z,60.76
2017-10-29T16:11:42.122Z,61.53
2017-10-29T16:14:07.884Z,63.42
2017-10-29T16:16:33.666Z,63.42
2017-10-29T16:18:59.435Z,63.70
2017-10-29T16:21:25.188Z,63.73
2017-10-29T16:23:50.981Z,64.71
2017-10-29T16:26:16.735Z,64.96
2017-10-29T16:28:42.492Z,67.26
2017-10-29T16:31:08.302Z,66.46
2017-10-29T16:33:34.069Z,66.41
2017-10-29T16:35:59.828Z,68.58
2017-10-29T16:38:25.642Z,68.82
2017-10-29T16:40:51.428Z,68.47
2017-10-29T16:43:17.245Z,68.87
2017-10-29T16:45:43.027Z,66.97
2017-10-29T16:48:08.786Z,67.25
2017-10-29T16:50:34.567Z,65.74
2017-10-29T16:53:00.333Z,65.99
2017-10-29T16:55:26.207Z,66.14
2017-10-29T16:57:51.987Z,66.33
2017-10-29T17:00:17.767Z,67.84
2017-10-29T17:02:43.518Z,67.11
2017-10-29T17:05:09.334Z,66.93
2017-10-29T17:07:35.095Z,67.67
2017-10-29T17:10:00.940Z,70.09
2017-10-29T17:12:26.747Z,70.33
2017-10-29T17:14:52.504Z,71.62
2017-10-29T17:17:18.295Z,71.89
2017-10-29T17:19:44.062Z,71.83
2017-10-29T17:22:09.851Z,71.72
2017-10-29T17:24:35.624Z,71.14
2017-10-29T17:27:01.379Z,70.95
2017-10-29T17:29:27.139Z,70.60
2017-10-29T17:31:52.914Z,71.32
2017-10-29T17:34:18.683Z,72.13
2017-10-29T17:36:45.487Z,72.27
2017-10-29T17:39:11.345Z,72.46
2017-10-29T17:41:37.118Z,72.90
2017-10-29T17:44:02.890Z,72.68
2017-10-29T17:46:28.654Z,72.34
2017-10-29T17:48:54.412Z,71.27
2017-10-29T17:51:20.178Z,71.20
2017-10-29T17:53:45.967Z,71.65
2017-10-29T17:56:11.765Z,70.49
2017-10-29T17:58:37.559Z,71.58
2017-10-29T18:01:03.310Z,70.72
2017-10-29T18:03:29.087Z,71.13
2017-10-29T18:05:54.869Z,70.75
2017-10-29T18:08:20.643Z,71.02
2017-10-29T18:10:46.413Z,70.92
2017-10-29T18:13:12.194Z,70.66
2017-10-29T18:15:37.968Z,71.60
2017-10-29T18:18:03.779Z,70.54
2017-10-29T18:20:29.567Z,70.51
2017-10-29T18:22:55.338Z,71.16
2017-10-29T18:25:21.116Z,71.63
2017-10-29T18:27:46.875Z,71.47
2017-10-29T18:30:12.623Z,72.99
2017-10-29T18:32:38.392Z,71.08
2017-10-29T18:35:04.187Z,70.66
2017-10-29T18:37:29.964Z,70.22
2017-10-29T18:39:55.746Z,71.83
2017-10-29T18:42:21.547Z,72.23
2017-10-29T18:44:47.335Z,71.37
2017-10-29T18:47:13.153Z,71.72
2017-10-29T18:49:38.920Z,71.74
2017-10-29T18:52:04.686Z,72.57
2017-10-29T18:54:30.439Z,72.65
2017-10-29T18:56:56.196Z,71.92
2017-10-29T18:59:21.990Z,71.26
2017-10-29T19:01:47.740Z,70.83
2017-10-29T19:04:13.548Z,71.71
2017-10-29T19:06:39.314Z,71.25
2017-10-29T19:09:05.070Z,71.42
2017-10-29T19:11:30.926Z,72.01
2017-10-29T19:13:56.702Z,71.81
2017-10-29T19:16:22.469Z,72.91
2017-10-29T19:18:48.247Z,73.60
2017-10-29T19:21:14.030Z,72.67
2017-10-29T19:23:39.798Z,72.99
2017-10-29T19:26:05.565Z,72.93
2017-10-29T19:28:31.352Z,72.76
2017-10-29T19:30:57.126Z,73.61
2017-10-29T19:33:22.958Z,73.77
2017-10-29T19:35:48.768Z,74.07
2017-10-29T19:38:14.532Z,73.60
2017-10-29T19:40:40.295Z,73.68
2017-10-29T19:43:06.066Z,72.60
2017-10-29T19:45:31.851Z,73.08
2017-10-29T19:47:57.600Z,72.84
2017-10-29T19:50:23.344Z,72.62
2017-10-29T19:52:49.123Z,72.91
2017-10-29T19:55:14.871Z,72.15
2017-10-29T19:57:40.635Z,72.04
2017-10-29T20:00:06.445Z,72.03
2017-10-29T20:02:32.205Z,71.93
2017-10-29T20:04:58.102Z,72.27
2017-10-29T20:07:23.890Z,72.00
2017-10-29T20:09:49.651Z,71.76
2017-10-29T20:12:15.447Z,72.47
2017-10-29T20:14:41.216Z,72.36
2017-10-29T20:17:06.983Z,72.35
2017-10-29T20:19:32.755Z,72.10
2017-10-29T20:21:58.526Z,73.14
2017-10-29T20:24:24.303Z,73.78
2017-10-29T20:26:50.087Z,73.81
2017-10-29T20:29:15.883Z,74.60
2017-10-29T20:31:41.688Z,73.74
2017-10-29T20:34:07.429Z,73.89
2017-10-29T20:36:33.200Z,73.89
2017-10-29T20:38:58.979Z,74.52
2017-10-29T20:41:24.787Z,74.99
2017-10-29T20:43:50.584Z,75.26
2017-10-29T20:46:16.372Z,75.08
2017-10-29T20:48:42.143Z,74.70
2017-10-29T20:51:07.903Z,75.00
2017-10-29T20:53:33.683Z,74.83
2017-10-29T20:55:59.440Z,74.68
2017-10-29T20:58:25.244Z,75.14
2017-10-29T21:00:51.005Z,75.35
2017-10-29T21:03:16.759Z,75.15
2017-10-29T21:05:42.558Z,75.25
2017-10-29T21:08:08.348Z,75.59
2017-10-29T21:10:34.140Z,75.60
2017-10-29T21:12:59.895Z,75.89
2017-10-29T21:15:25.683Z,76.44
2017-10-29T21:17:51.464Z,76.58
2017-10-29T21:20:17.242Z,76.16
2017-10-29T21:22:45.998Z,75.90
2017-10-29T21:25:11.952Z,76.40
2017-10-29T21:27:37.728Z,76.22
2017-10-29T21:30:03.491Z,76.44
2017-10-29T21:32:29.283Z,76.20
2017-10-29T21:34:55.051Z,76.16
2017-10-29T21:37:20.816Z,75.82
2017-10-29T21:39:48.954Z,75.49
2017-10-29T21:42:14.780Z,75.58
2017-10-29T21:44:40.571Z,75.85
2017-10-29T21:47:06.317Z,75.80
2017-10-29T21:49:32.072Z,76.51
2017-10-29T21:51:57.876Z,76.55
2017-10-29T21:54:23.635Z,76.39
2017-10-29T21:56:49.421Z,76.57
2017-10-29T21:59:15.167Z,76.71
2017-10-29T22:01:40.928Z,76.74
2017-10-29T22:04:06.711Z,77.04
2017-10-29T22:06:32.451Z,76.44
2017-10-29T22:08:58.228Z,76.86
2017-10-29T22:11:23.975Z,76.92
2017-10-29T22:13:49.760Z,77.47
2017-10-29T22:16:15.512Z,77.35
2017-10-29T22:18:41.288Z,77.87
2017-10-29T22:21:07.062Z,78.17
2017-10-29T22:23:32.827Z,78.39
2017-10-29T22:25:58.588Z,78.37
2017-10-29T22:28:24.399Z,79.26
2017-10-29T22:30:50.174Z,79.22
2017-10-29T22:33:15.971Z,78.70
2017-10-29T22:35:41.734Z,78.52
2017-10-29T22:38:07.499Z,78.25
2017-10-29T22:40:33.283Z,78.25
2017-10-29T22:42:59.048Z,78.35
2017-10-29T22:45:24.829Z,78.98
2017-10-29T22:47:50.607Z,79.08
2017-10-29T22:50:16.360Z,78.81
2017-10-29T22:52:42.126Z,78.90
2017-10-29T22:55:07.974Z,78.70
2017-10-29T22:57:33.785Z,78.38
2017-10-29T22:59:59.555Z,78.66
2017-10-29T23:02:25.333Z,78.87
2017-10-29T23:05:03.554Z,78.88
2017-10-29T23:07:38.628Z,78.96
2017-10-29T23:10:04.415Z,79.18
2017-10-29T23:12:31.055Z,79.29
2017-10-29T23:14:56.807Z,79.01
2017-10-29T23:17:22.606Z,78.95
2017-10-29T23:19:48.382Z,78.62
2017-10-29T23:22:14.177Z,79.10
2017-10-29T23:24:39.956Z,79.31
2017-10-29T23:27:05.712Z,79.21
2017-10-29T23:29:31.508Z,79.17
2017-10-29T23:31:57.267Z,79.16
2017-10-29T23:34:23.035Z,79.99
2017-10-29T23:36:48.801Z,79.91
2017-10-29T23:39:14.588Z,79.97
2017-10-29T23:41:40.340Z,79.70
2017-10-29T23:44:06.124Z,79.64
2017-10-29T23:46:31.910Z,79.75
2017-10-29T23:48:57.664Z,79.10
2017-10-29T23:51:23.435Z,79.12
2017-10-29T23:53:49.210Z,79.66
2017-10-29T23:56:14.963Z,80.00
2017-10-29T23:58:40.739Z,79.38
